Home   Weather   Spain   Alcúdia   Past weeks
Flag for Spain

Past Weather in Alcúdia, Baleares, Spain — Yesterday and Last 2 Weeks

Currently: 75 °F. Clear. (Weather station: Palma De Mallorca / Son San Juan, Spain). See more current weather

Past Weather in Alcúdia — Graph

°F

Alcúdia Temperature Yesterday

Maximum temperature yesterday: 97 °F (at 12:00 pm)
Minimum temperature yesterday: 73 °F (at 5:00 am)
Average temperature yesterday: 85 °F

High & Low Weather Summary for the Past Weeks

 TemperatureHumidityPressure
High97 °F (Aug 5, 12:30 pm)89% (Jul 26, 3:00 am)30.09 "Hg (Jul 26, 3:00 am)
Low72 °F (Jul 28, 5:00 am)26% (Aug 5, 12:00 pm)29.89 "Hg (Jul 27, 6:00 pm)
Average84 °F64%29.97 "Hg
* Reported Jul 26 3:00 am — Aug 10 3:00 am, Alcúdia. Weather by CustomWeather, © 2022

Note: Actual official high and low records may vary slightly from our data, if they occured in-between our weather recording intervals... More about our weather records

Alcúdia Weather History for the Previous 24 Hours

Scroll right to see more
 ConditionsComfort  
Time TempWeatherWind HumidityBarometerVisibility
3:00 am
Wed, Aug 10
77 °FClear.1 mph69%30.01 "Hg10 mi
1:30 am77 °FPassing clouds.3 mph74%30.01 "HgN/A
1:00 am79 °FClear.5 mph70%30.01 "Hg10 mi
12:00 am81 °FClear.3 mph70%30.04 "Hg10 mi
11:00 pm
Tue, Aug 9
82 °FClear.No wind70%30.04 "Hg10 mi
10:00 pm84 °FClear.No wind70%30.04 "Hg10 mi
9:30 pm84 °FClear.6 mph66%30.04 "Hg10 mi
9:00 pm86 °FClear.7 mph70%30.04 "Hg10 mi
8:30 pm88 °FPassing clouds.8 mph62%30.01 "HgN/A
8:00 pm88 °FSunny.10 mph66%30.01 "Hg10 mi
7:00 pm90 °FPassing clouds.12 mph63%30.01 "HgN/A
6:00 pm90 °FPassing clouds.12 mph59%30.01 "HgN/A
5:30 pm90 °FPassing clouds.13 mph59%30.01 "HgN/A
5:00 pm91 °FPassing clouds.15 mph52%30.01 "HgN/A
4:00 pm91 °FPassing clouds.14 mph59%30.01 "HgN/A
3:30 pm93 °FPassing clouds.15 mph53%30.04 "HgN/A
3:00 pm93 °FPassing clouds.14 mph49%30.04 "HgN/A
2:30 pm93 °FPassing clouds.14 mph56%30.04 "HgN/A
2:00 pm91 °FPassing clouds.13 mph63%30.04 "HgN/A
1:00 pm93 °FPassing clouds.6 mph53%30.04 "HgN/A
12:30 pm97 °FPassing clouds.9 mph30%30.04 "HgN/A
12:00 pm97 °FPassing clouds.13 mph28%30.01 "HgN/A
11:30 am95 °FPassing clouds.10 mph30%30.04 "HgN/A
11:00 am93 °FPassing clouds.6 mph41%30.04 "HgN/A
10:00 am88 °FSunny.10 mph62%30.04 "Hg10 mi
9:30 am86 °FSunny.13 mph62%30.01 "Hg10 mi
9:00 am84 °FSunny.8 mph62%30.01 "Hg10 mi
8:30 am82 °FSunny.7 mph62%30.01 "Hg10 mi
8:00 am77 °FPassing clouds.6 mph74%30.01 "HgN/A
7:00 am73 °FSunny.1 mph83%30.01 "Hg10 mi
6:30 am73 °FClear.No wind83%29.98 "Hg10 mi
6:00 am73 °FClear.3 mph83%30.01 "Hg10 mi
5:30 am73 °FClear.1 mph83%30.01 "Hg10 mi
5:00 am73 °FClear.1 mph83%30.01 "Hg10 mi
4:30 am75 °FClear.3 mph78%30.01 "Hg10 mi
4:00 am75 °FPassing clouds.No wind78%30.01 "HgN/A
Weather by CustomWeather, © 2022

See weather overview